Time;durP1;ratioP1;P1;durP2;ratioP2;P2;SDS_P1;SDS_P2;PMS_P1;PMS_P2;Temp;Humidity;BMP_temperature;BMP_pressure;BME280_temperature;BME280_humidity;BME280_pressure;Samples;Min_cycle;Max_cycle;Signal;HPM_P1;HPM_P2
2021/10/06 00:02:27;;;;;;;4.87;1.63;;;;;;;;;;10214960;28;20049;-62
2021/10/06 00:07:25;;;;;;;4.03;2.30;;;;;;;;;;10199171;28;20125;-63
2021/10/06 00:12:22;;;;;;;7.17;2.13;;;;;;;;;;10193899;28;20093;-61
2021/10/06 00:17:20;;;;;;;4.53;1.83;;;;;;;;;;10212691;28;20050;-62
2021/10/06 00:22:17;;;;;;;4.33;2.47;;;;;;;;;;10200035;28;20509;-62
2021/10/06 00:27:15;;;;;;;8.37;2.60;;;;;;;;;;10209334;28;20527;-62
2021/10/06 00:32:12;;;;;;;3.93;2.40;;;;;;;;;;10209834;28;20030;-62
2021/10/06 00:37:10;;;;;;;4.20;2.07;;;;;;;;;;10213330;28;20088;-62
2021/10/06 00:42:07;;;;;;;2.93;1.80;;;;;;;;;;10190125;28;20034;-63
2021/10/06 00:47:09;;;;;;;2.33;1.93;;;;;;;;;;10211635;28;20035;-62
2021/10/06 00:52:06;;;;;;;6.53;2.00;;;;;;;;;;10208087;28;20539;-63
2021/10/06 00:57:05;;;;;;;5.80;2.60;;;;;;;;;;10211445;28;20084;-62
2021/10/06 01:02:03;;;;;;;5.28;2.10;;;;;;;;;;10208172;28;20096;-62
2021/10/06 01:07:00;;;;;;;4.73;2.57;;;;;;;;;;10191344;28;20035;-61
2021/10/06 01:11:58;;;;;;;4.53;2.67;;;;;;;;;;10208249;28;20518;-62
2021/10/06 01:16:56;;;;;;;5.20;3.30;;;;;;;;;;10197156;28;21695;-61
2021/10/06 01:21:54;;;;;;;3.57;2.00;;;;;;;;;;10207021;28;20041;-61
2021/10/06 01:26:51;;;;;;;3.80;2.22;;;;;;;;;;10203678;28;20042;-62
2021/10/06 01:31:49;;;;;;;3.92;2.25;;;;;;;;;;10191325;28;20030;-62
2021/10/06 01:36:48;;;;;;;4.47;2.33;;;;;;;;;;10201418;28;20038;-62
2021/10/06 01:41:46;;;;;;;3.72;1.80;;;;;;;;;;10206491;28;20038;-61
2021/10/06 01:46:44;;;;;;;4.72;2.00;;;;;;;;;;10204037;28;20035;-63
2021/10/06 01:51:41;;;;;;;10.00;2.40;;;;;;;;;;10209242;28;20040;-63
2021/10/06 01:56:39;;;;;;;5.60;2.20;;;;;;;;;;10211960;28;20042;-63
2021/10/06 02:01:36;;;;;;;7.57;2.43;;;;;;;;;;10219340;28;20045;-62
2021/10/06 02:06:34;;;;;;;4.03;2.20;;;;;;;;;;10206736;28;20567;-63
2021/10/06 02:11:31;;;;;;;2.73;2.00;;;;;;;;;;10205215;28;20534;-64
2021/10/06 02:16:29;;;;;;;8.53;2.40;;;;;;;;;;10213005;28;20130;-64
2021/10/06 02:21:26;;;;;;;5.17;2.20;;;;;;;;;;10255854;28;20053;-63
2021/10/06 02:26:23;;;;;;;4.17;2.20;;;;;;;;;;10233846;28;20038;-62
2021/10/06 02:31:21;;;;;;;2.73;1.87;;;;;;;;;;10230289;28;20065;-62
2021/10/06 02:36:18;;;;;;;4.00;2.20;;;;;;;;;;10214059;28;20043;-61
2021/10/06 02:41:15;;;;;;;9.87;2.30;;;;;;;;;;10215354;28;20043;-62
2021/10/06 02:46:13;;;;;;;8.00;2.20;;;;;;;;;;10229387;28;20035;-62
2021/10/06 02:51:11;;;;;;;3.10;1.90;;;;;;;;;;10210589;28;20045;-62
2021/10/06 02:56:08;;;;;;;3.33;1.90;;;;;;;;;;10239457;28;20056;-63
2021/10/06 03:01:05;;;;;;;9.97;2.30;;;;;;;;;;10250871;28;20046;-63
2021/10/06 03:06:03;;;;;;;5.93;2.53;;;;;;;;;;10226448;28;20053;-62
2021/10/06 03:11:01;;;;;;;6.20;2.43;;;;;;;;;;10209046;28;20463;-63
2021/10/06 03:15:59;;;;;;;3.38;1.52;;;;;;;;;;10224459;28;20282;-63
2021/10/06 03:20:58;;;;;;;2.43;1.60;;;;;;;;;;10242383;28;20508;-63
2021/10/06 03:25:56;;;;;;;2.47;1.40;;;;;;;;;;10252297;28;20043;-63
2021/10/06 03:30:53;;;;;;;4.60;1.43;;;;;;;;;;10246786;28;20069;-63
2021/10/06 03:35:51;;;;;;;2.93;1.40;;;;;;;;;;10240590;28;20056;-62
2021/10/06 03:40:48;;;;;;;3.20;1.20;;;;;;;;;;10244330;28;20113;-63
2021/10/06 03:45:45;;;;;;;5.17;1.23;;;;;;;;;;10225422;28;20030;-63
2021/10/06 03:50:45;;;;;;;4.83;2.43;;;;;;;;;;10205999;28;20080;-63
2021/10/06 03:55:42;;;;;;;7.40;2.00;;;;;;;;;;10188868;28;20037;-61
2021/10/06 04:00:39;;;;;;;3.47;2.00;;;;;;;;;;10198033;28;20045;-65
2021/10/06 04:05:37;;;;;;;3.83;2.10;;;;;;;;;;10208095;28;20501;-62
2021/10/06 04:10:35;;;;;;;3.85;2.25;;;;;;;;;;10194984;28;20085;-62
2021/10/06 04:15:33;;;;;;;3.33;2.00;;;;;;;;;;10171020;28;20049;-62
2021/10/06 04:20:30;;;;;;;6.07;1.93;;;;;;;;;;10192877;28;20081;-64
2021/10/06 04:25:27;;;;;;;3.40;2.03;;;;;;;;;;10199143;28;20045;-63
2021/10/06 04:30:25;;;;;;;2.50;1.80;;;;;;;;;;10190109;28;20113;-64
2021/10/06 04:35:22;;;;;;;3.33;2.30;;;;;;;;;;10194530;28;20129;-62
2021/10/06 04:40:20;;;;;;;4.43;1.97;;;;;;;;;;10196519;28;20045;-63
2021/10/06 04:45:17;;;;;;;6.67;2.33;;;;;;;;;;10194489;28;20407;-62
2021/10/06 04:50:14;;;;;;;2.93;2.00;;;;;;;;;;10183909;28;20157;-61
2021/10/06 04:55:12;;;;;;;6.27;2.60;;;;;;;;;;10190207;28;20030;-60
2021/10/06 05:00:09;;;;;;;3.13;2.20;;;;;;;;;;10194651;28;20041;-62
2021/10/06 05:05:07;;;;;;;4.27;2.20;;;;;;;;;;10192727;28;20141;-62
2021/10/06 05:10:05;;;;;;;9.23;3.10;;;;;;;;;;10185821;28;20030;-62
2021/10/06 05:15:02;;;;;;;7.83;3.17;;;;;;;;;;10197616;28;20034;-63
2021/10/06 05:19:59;;;;;;;8.13;3.53;;;;;;;;;;10197617;28;20045;-62
2021/10/06 05:24:57;;;;;;;7.03;4.13;;;;;;;;;;10197593;28;20126;-60
2021/10/06 05:29:54;;;;;;;7.53;3.97;;;;;;;;;;10211047;28;20495;-62
2021/10/06 05:34:52;;;;;;;5.00;3.30;;;;;;;;;;10215112;28;20044;-61
2021/10/06 05:39:49;;;;;;;5.13;3.37;;;;;;;;;;10194958;28;20174;-61
2021/10/06 05:44:46;;;;;;;5.77;3.60;;;;;;;;;;10202438;28;20129;-61
2021/10/06 05:49:46;;;;;;;7.40;3.90;;;;;;;;;;10208732;28;20045;-61
2021/10/06 05:54:43;;;;;;;11.88;4.20;;;;;;;;;;10208954;28;20562;-61
2021/10/06 05:59:41;;;;;;;10.10;3.20;;;;;;;;;;10213335;28;20034;-62
2021/10/06 06:04:38;;;;;;;4.43;3.27;;;;;;;;;;10197762;28;20030;-63
2021/10/06 06:09:36;;;;;;;5.10;2.87;;;;;;;;;;10198614;28;20488;-61
2021/10/06 06:14:33;;;;;;;4.60;3.63;;;;;;;;;;10180264;28;20446;-62
2021/10/06 06:19:31;;;;;;;5.23;2.37;;;;;;;;;;10201265;28;20114;-62
2021/10/06 06:24:28;;;;;;;5.87;2.87;;;;;;;;;;10160523;28;20045;-62
2021/10/06 06:29:26;;;;;;;5.43;2.70;;;;;;;;;;10197452;28;20038;-61
2021/10/06 06:34:24;;;;;;;8.13;2.30;;;;;;;;;;10203040;28;20030;-61
2021/10/06 06:39:21;;;;;;;4.63;2.63;;;;;;;;;;10205726;28;20140;-61
2021/10/06 06:44:19;;;;;;;5.50;2.73;;;;;;;;;;10199383;28;20031;-62
2021/10/06 06:49:16;;;;;;;4.77;2.67;;;;;;;;;;10189316;28;20073;-61
2021/10/06 06:54:14;;;;;;;5.33;2.17;;;;;;;;;;10203549;28;20121;-61
2021/10/06 06:59:11;;;;;;;6.67;2.80;;;;;;;;;;10200435;28;20104;-63
2021/10/06 07:04:09;;;;;;;7.20;2.10;;;;;;;;;;10202174;28;20056;-62
2021/10/06 07:09:06;;;;;;;6.10;2.10;;;;;;;;;;10189940;28;20045;-61
2021/10/06 07:14:04;;;;;;;4.07;2.07;;;;;;;;;;10186562;28;20626;-63
2021/10/06 07:19:01;;;;;;;6.63;2.60;;;;;;;;;;10199856;28;20042;-62
2021/10/06 07:23:58;;;;;;;3.73;1.70;;;;;;;;;;10200671;28;20034;-63
2021/10/06 07:28:56;;;;;;;6.33;2.93;;;;;;;;;;10201538;28;20080;-60
2021/10/06 07:33:53;;;;;;;4.50;2.17;;;;;;;;;;10190629;28;20105;-62
2021/10/06 07:38:54;;;;;;;5.00;2.37;;;;;;;;;;10188492;28;20470;-60
2021/10/06 07:43:51;;;;;;;5.43;2.80;;;;;;;;;;10193110;28;20566;-63
2021/10/06 07:48:50;;;;;;;8.83;2.87;;;;;;;;;;10201144;28;20113;-61
2021/10/06 07:53:48;;;;;;;4.90;2.70;;;;;;;;;;10186206;28;20042;-63
2021/10/06 07:58:46;;;;;;;5.67;2.80;;;;;;;;;;10190969;28;20046;-61
2021/10/06 08:03:43;;;;;;;9.17;2.00;;;;;;;;;;10192552;28;20030;-62
2021/10/06 08:08:41;;;;;;;7.03;2.70;;;;;;;;;;10163319;28;20058;-62
2021/10/06 08:13:38;;;;;;;7.83;3.10;;;;;;;;;;10184917;28;20031;-62
2021/10/06 08:18:36;;;;;;;2.00;1.80;;;;;;;;;;10198243;28;20030;-63
2021/10/06 08:23:33;;;;;;;6.03;2.00;;;;;;;;;;10200863;28;20034;-59
2021/10/06 08:28:35;;;;;;;3.50;1.50;;;;;;;;;;10180856;28;20040;-61
2021/10/06 08:33:33;;;;;;;3.30;1.93;;;;;;;;;;10199617;28;20030;-60
2021/10/06 08:38:31;;;;;;;4.53;2.07;;;;;;;;;;10199150;28;20046;-60
2021/10/06 08:43:28;;;;;;;4.13;2.08;;;;;;;;;;10207113;28;20065;-60
2021/10/06 08:48:27;;;;;;;2.60;1.60;;;;;;;;;;10194669;28;20404;-61
2021/10/06 08:53:25;;;;;;;2.45;1.20;;;;;;;;;;10195871;28;20515;-61
2021/10/06 08:58:22;;;;;;;2.57;1.70;;;;;;;;;;10149412;28;20042;-61
2021/10/06 09:03:23;;;;;;;1.43;1.33;;;;;;;;;;10195459;28;20030;-60
2021/10/06 09:08:25;;;;;;;1.40;0.90;;;;;;;;;;10196935;28;20120;-61
2021/10/06 09:13:26;;;;;;;4.72;1.30;;;;;;;;;;10193106;28;20101;-62
2021/10/06 09:18:25;;;;;;;2.25;1.40;;;;;;;;;;10196693;28;20522;-62
2021/10/06 09:23:22;;;;;;;2.88;1.05;;;;;;;;;;10188222;28;20050;-60
2021/10/06 09:28:25;;;;;;;4.53;1.47;;;;;;;;;;10192121;28;20038;-60
2021/10/06 09:33:38;;;;;;;0.85;0.85;;;;;;;;;;10185918;28;20384;-62
2021/10/06 09:38:56;;;;;;;1.85;1.48;;;;;;;;;;10170683;28;20061;-60
2021/10/06 09:44:07;;;;;;;2.55;1.60;;;;;;;;;;10202805;28;20069;-62
2021/10/06 09:49:15;;;;;;;4.03;1.38;;;;;;;;;;10182822;28;20045;-62
2021/10/06 09:54:13;;;;;;;3.28;1.70;;;;;;;;;;10193824;28;20416;-61
2021/10/06 09:59:15;;;;;;;5.95;1.52;;;;;;;;;;10187161;28;20046;-62
2021/10/06 10:04:13;;;;;;;2.65;1.35;;;;;;;;;;10197767;28;20038;-63
2021/10/06 10:09:13;;;;;;;1.52;1.08;;;;;;;;;;10190419;28;20097;-63
2021/10/06 10:14:10;;;;;;;1.58;1.10;;;;;;;;;;10199483;28;20632;-63
2021/10/06 10:19:11;;;;;;;2.10;1.77;;;;;;;;;;10189844;28;20058;-62
2021/10/06 10:24:14;;;;;;;3.00;1.50;;;;;;;;;;10203863;28;20034;-62
2021/10/06 10:29:30;;;;;;;1.30;1.20;;;;;;;;;;10183040;28;20060;-62
2021/10/06 10:34:48;;;;;;;4.10;1.55;;;;;;;;;;10204640;28;20049;-62
2021/10/06 10:39:49;;;;;;;5.20;1.38;;;;;;;;;;10186903;28;20030;-62
2021/10/06 10:44:47;;;;;;;0.55;0.52;;;;;;;;;;10201752;28;20038;-62
2021/10/06 10:49:49;;;;;;;2.03;1.40;;;;;;;;;;10197151;28;20034;-62
2021/10/06 10:54:49;;;;;;;0.90;0.90;;;;;;;;;;10206349;28;20137;-63
2021/10/06 10:59:51;;;;;;;6.05;1.75;;;;;;;;;;10183050;28;20140;-61
2021/10/06 11:04:56;;;;;;;2.85;0.88;;;;;;;;;;10178384;28;20042;-61
2021/10/06 11:09:56;;;;;;;0.93;0.70;;;;;;;;;;10165812;28;20034;-61
2021/10/06 11:15:12;;;;;;;1.05;0.80;;;;;;;;;;10185656;28;20412;-62
2021/10/06 11:20:30;;;;;;;2.22;0.63;;;;;;;;;;10192852;28;20512;-62
2021/10/06 11:25:27;;;;;;;1.48;0.80;;;;;;;;;;10202197;28;20066;-61
2021/10/06 11:30:25;;;;;;;1.53;0.60;;;;;;;;;;10203784;28;20393;-60
2021/10/06 11:35:22;;;;;;;2.00;0.80;;;;;;;;;;10185252;28;20101;-62
2021/10/06 11:40:19;;;;;;;1.43;0.77;;;;;;;;;;10213727;28;20034;-60
2021/10/06 11:45:18;;;;;;;1.30;1.20;;;;;;;;;;10209036;28;20274;-62
2021/10/06 11:50:16;;;;;;;2.08;1.38;;;;;;;;;;10205060;28;20038;-61
2021/10/06 11:55:13;;;;;;;1.40;1.10;;;;;;;;;;10210770;28;20034;-62
2021/10/06 12:00:16;;;;;;;2.90;0.93;;;;;;;;;;10210616;28;20046;-63
2021/10/06 12:05:13;;;;;;;2.50;1.08;;;;;;;;;;10204784;28;20034;-63
2021/10/06 12:10:12;;;;;;;2.00;0.70;;;;;;;;;;10208898;28;20412;-63
2021/10/06 12:15:11;;;;;;;1.33;1.15;;;;;;;;;;10207668;28;20134;-62
2021/10/06 12:20:11;;;;;;;2.63;1.40;;;;;;;;;;10221072;28;20070;-60
2021/10/06 12:25:12;;;;;;;5.07;2.83;;;;;;;;;;10202384;28;20049;-63
2021/10/06 12:30:11;;;;;;;7.65;2.15;;;;;;;;;;10202243;28;20444;-62
2021/10/06 12:35:10;;;;;;;7.15;2.50;;;;;;;;;;10206889;28;20030;-63
2021/10/06 12:40:07;;;;;;;3.88;1.42;;;;;;;;;;10203391;28;20038;-63
2021/10/06 12:45:09;;;;;;;1.87;1.23;;;;;;;;;;10210443;28;20034;-63
2021/10/06 12:50:08;;;;;;;4.75;1.15;;;;;;;;;;10203192;28;20041;-64
2021/10/06 12:55:06;;;;;;;1.40;1.00;;;;;;;;;;10193190;28;20030;-64
2021/10/06 13:00:16;;;;;;;3.40;1.10;;;;;;;;;;10205681;28;20046;-63
2021/10/06 13:05:14;;;;;;;2.92;0.90;;;;;;;;;;10168025;28;20181;-63
2021/10/06 13:10:12;;;;;;;6.50;1.10;;;;;;;;;;10191250;28;20034;-63
2021/10/06 13:15:09;;;;;;;1.75;0.75;;;;;;;;;;10192656;28;20039;-63
2021/10/06 13:20:07;;;;;;;2.23;0.80;;;;;;;;;;10208548;28;20050;-63
2021/10/06 13:25:04;;;;;;;1.53;0.50;;;;;;;;;;10214137;28;20524;-63
2021/10/06 13:30:02;;;;;;;0.57;0.50;;;;;;;;;;10202938;28;20038;-63
2021/10/06 13:35:00;;;;;;;0.70;0.47;;;;;;;;;;10199164;28;20072;-63
2021/10/06 13:39:58;;;;;;;0.87;0.40;;;;;;;;;;10202936;28;20042;-63
2021/10/06 13:44:55;;;;;;;0.77;0.55;;;;;;;;;;10201462;28;20027;-63
2021/10/06 13:49:53;;;;;;;0.60;0.60;;;;;;;;;;10203918;28;20950;-63
2021/10/06 13:54:50;;;;;;;0.83;0.83;;;;;;;;;;10202998;28;20061;-62
2021/10/06 13:59:48;;;;;;;3.97;0.53;;;;;;;;;;10207057;28;20113;-63
2021/10/06 14:04:46;;;;;;;1.85;0.70;;;;;;;;;;10205247;28;20142;-63
2021/10/06 14:09:46;;;;;;;0.67;0.50;;;;;;;;;;10212342;28;20112;-60
2021/10/06 14:14:43;;;;;;;0.98;0.70;;;;;;;;;;10192526;28;20074;-62
2021/10/06 14:19:43;;;;;;;0.70;0.70;;;;;;;;;;10210072;28;20026;-63
2021/10/06 14:24:41;;;;;;;0.50;0.50;;;;;;;;;;10208626;28;20026;-63
2021/10/06 14:29:38;;;;;;;0.60;0.60;;;;;;;;;;10213295;28;20145;-62
2021/10/06 14:34:36;;;;;;;0.43;0.43;;;;;;;;;;10198713;28;20209;-62
2021/10/06 14:39:33;;;;;;;0.80;0.80;;;;;;;;;;10214138;28;20034;-62
2021/10/06 14:44:30;;;;;;;0.57;0.50;;;;;;;;;;10204891;28;20034;-62
2021/10/06 14:49:28;;;;;;;0.77;0.77;;;;;;;;;;10200934;28;20381;-63
2021/10/06 14:54:31;;;;;;;1.13;0.70;;;;;;;;;;10204705;28;20164;-63
2021/10/06 14:59:28;;;;;;;0.77;0.77;;;;;;;;;;10204330;28;20107;-62
2021/10/06 15:04:26;;;;;;;1.53;0.87;;;;;;;;;;10208575;28;20500;-60
2021/10/06 15:09:24;;;;;;;0.57;0.57;;;;;;;;;;10199961;28;20034;-64
2021/10/06 15:14:23;;;;;;;5.43;0.80;;;;;;;;;;10203748;28;20492;-63
2021/10/06 15:19:22;;;;;;;2.33;0.93;;;;;;;;;;10209515;28;20035;-64
2021/10/06 15:24:19;;;;;;;2.28;0.93;;;;;;;;;;10202582;28;20056;-63
2021/10/06 15:29:20;;;;;;;1.27;1.17;;;;;;;;;;10206996;28;20040;-63
2021/10/06 15:34:21;;;;;;;2.42;0.77;;;;;;;;;;10205599;28;20033;-63
2021/10/06 15:39:19;;;;;;;3.10;1.38;;;;;;;;;;10207245;28;20045;-64
2021/10/06 15:44:16;;;;;;;0.93;0.77;;;;;;;;;;10207591;28;20050;-63
2021/10/06 15:49:14;;;;;;;3.10;0.93;;;;;;;;;;10195816;28;20046;-63
2021/10/06 15:54:11;;;;;;;1.63;1.20;;;;;;;;;;10201233;28;20045;-63
2021/10/06 15:59:09;;;;;;;1.53;0.90;;;;;;;;;;10193816;28;20034;-62
2021/10/06 16:04:07;;;;;;;1.80;1.00;;;;;;;;;;10199314;28;20117;-61
2021/10/06 16:09:05;;;;;;;3.97;1.00;;;;;;;;;;10202143;28;20137;-63
2021/10/06 16:14:02;;;;;;;0.73;0.73;;;;;;;;;;10202855;28;20037;-62
2021/10/06 16:19:00;;;;;;;2.13;0.93;;;;;;;;;;10214668;28;20034;-62
2021/10/06 16:23:57;;;;;;;1.47;0.90;;;;;;;;;;10194947;28;20468;-62
2021/10/06 16:28:55;;;;;;;0.73;0.65;;;;;;;;;;10210111;28;20125;-63
2021/10/06 16:33:52;;;;;;;0.70;0.70;;;;;;;;;;10200230;28;20459;-61
2021/10/06 16:38:50;;;;;;;1.27;0.90;;;;;;;;;;10210478;28;20046;-63
2021/10/06 16:43:48;;;;;;;1.43;1.00;;;;;;;;;;10214628;28;20034;-60
2021/10/06 16:48:45;;;;;;;1.80;1.60;;;;;;;;;;10209432;28;20041;-63
2021/10/06 16:53:43;;;;;;;1.40;1.30;;;;;;;;;;10212017;28;20030;-62
2021/10/06 16:58:40;;;;;;;3.23;1.23;;;;;;;;;;10199302;28;20121;-64
2021/10/06 17:03:37;;;;;;;1.00;0.97;;;;;;;;;;10203736;28;20117;-62
2021/10/06 17:08:35;;;;;;;2.70;1.07;;;;;;;;;;10180288;28;20511;-64
2021/10/06 17:13:35;;;;;;;2.53;1.10;;;;;;;;;;10189488;28;20053;-63
2021/10/06 17:18:32;;;;;;;1.17;1.15;;;;;;;;;;10207147;28;20646;-63
2021/10/06 17:23:30;;;;;;;2.93;1.30;;;;;;;;;;10226553;28;20034;-64
2021/10/06 17:28:27;;;;;;;1.57;0.97;;;;;;;;;;10222255;28;20046;-61
2021/10/06 17:33:25;;;;;;;1.47;1.03;;;;;;;;;;10221961;28;20538;-63
2021/10/06 17:38:22;;;;;;;2.77;1.10;;;;;;;;;;10206778;28;20073;-64
2021/10/06 17:43:20;;;;;;;1.17;0.93;;;;;;;;;;10217473;28;20125;-63
2021/10/06 17:48:17;;;;;;;3.53;1.00;;;;;;;;;;10205396;28;20053;-62
2021/10/06 17:53:14;;;;;;;1.60;1.50;;;;;;;;;;10204984;28;20283;-64
2021/10/06 17:58:12;;;;;;;2.30;1.00;;;;;;;;;;10215182;28;20459;-63
2021/10/06 18:03:09;;;;;;;1.30;1.20;;;;;;;;;;10207154;28;20396;-64
2021/10/06 18:08:07;;;;;;;1.03;0.97;;;;;;;;;;10200741;28;20579;-63
2021/10/06 18:13:04;;;;;;;1.07;0.97;;;;;;;;;;10211731;28;20048;-63
2021/10/06 18:18:01;;;;;;;1.77;1.47;;;;;;;;;;10217192;28;20255;-64
2021/10/06 18:22:59;;;;;;;0.90;0.90;;;;;;;;;;10218357;28;20689;-63
2021/10/06 18:27:56;;;;;;;2.00;1.27;;;;;;;;;;10195661;28;20508;-61
2021/10/06 18:32:54;;;;;;;2.53;1.23;;;;;;;;;;10208803;28;20038;-63
2021/10/06 18:37:51;;;;;;;2.37;1.23;;;;;;;;;;10213427;28;20050;-64
2021/10/06 18:42:49;;;;;;;1.03;1.03;;;;;;;;;;10213640;28;20054;-65
2021/10/06 18:47:46;;;;;;;1.60;1.50;;;;;;;;;;10212101;28;20038;-62
2021/10/06 18:52:44;;;;;;;1.53;1.00;;;;;;;;;;10193050;28;20033;-64
2021/10/06 18:57:43;;;;;;;1.80;1.00;;;;;;;;;;10192683;28;20059;-64
2021/10/06 19:02:40;;;;;;;2.30;1.40;;;;;;;;;;10187016;28;20553;-62
2021/10/06 19:07:39;;;;;;;1.80;1.10;;;;;;;;;;10198558;28;20048;-62
2021/10/06 19:12:37;;;;;;;1.87;1.33;;;;;;;;;;10180690;28;20043;-64
2021/10/06 19:17:34;;;;;;;1.87;1.57;;;;;;;;;;10184182;28;20118;-62
2021/10/06 19:22:32;;;;;;;1.13;1.00;;;;;;;;;;10196063;28;20104;-63
2021/10/06 19:27:30;;;;;;;1.30;1.20;;;;;;;;;;10203707;28;20045;-64
2021/10/06 19:32:27;;;;;;;1.60;1.50;;;;;;;;;;10197160;28;20046;-64
2021/10/06 19:37:24;;;;;;;5.00;1.90;;;;;;;;;;10198055;28;20038;-62
2021/10/06 19:42:22;;;;;;;2.47;1.40;;;;;;;;;;10201657;28;20125;-61
2021/10/06 19:47:19;;;;;;;5.23;4.10;;;;;;;;;;10204044;28;20411;-62
2021/10/06 19:52:17;;;;;;;5.70;4.60;;;;;;;;;;10207822;28;20038;-64
2021/10/06 19:57:14;;;;;;;4.47;3.93;;;;;;;;;;10202179;28;20045;-64
2021/10/06 20:02:12;;;;;;;6.23;4.00;;;;;;;;;;10193940;28;20042;-64
2021/10/06 20:07:11;;;;;;;5.87;3.63;;;;;;;;;;10203491;28;20050;-63
2021/10/06 20:12:09;;;;;;;6.30;3.53;;;;;;;;;;10194847;28;20101;-64
2021/10/06 20:17:06;;;;;;;4.10;3.70;;;;;;;;;;10199146;28;20097;-65
2021/10/06 20:22:04;;;;;;;4.30;3.90;;;;;;;;;;10205573;28;20551;-65
2021/10/06 20:27:02;;;;;;;3.58;3.28;;;;;;;;;;10180732;28;20083;-64
2021/10/06 20:31:59;;;;;;;4.60;3.83;;;;;;;;;;10179270;28;20046;-64
2021/10/06 20:37:09;;;;;;;4.43;3.50;;;;;;;;;;10188095;28;20129;-63
2021/10/06 20:42:06;;;;;;;4.45;3.97;;;;;;;;;;10192666;28;20052;-65
2021/10/06 20:47:04;;;;;;;1.83;0.57;;;;;;;;;;10198183;28;20612;-64
2021/10/06 20:52:01;;;;;;;2.73;0.67;;;;;;;;;;10204889;28;20046;-64
2021/10/06 20:56:59;;;;;;;1.13;1.00;;;;;;;;;;10183914;28;20038;-64
2021/10/06 21:01:56;;;;;;;0.93;0.93;;;;;;;;;;10208880;28;20043;-62
2021/10/06 21:06:54;;;;;;;1.90;0.70;;;;;;;;;;10195449;28;20522;-64
2021/10/06 21:11:51;;;;;;;0.60;0.60;;;;;;;;;;10183449;28;20161;-62
2021/10/06 21:16:49;;;;;;;1.13;0.60;;;;;;;;;;10196009;28;20042;-62
2021/10/06 21:21:46;;;;;;;0.57;0.57;;;;;;;;;;10196321;28;20042;-62
2021/10/06 21:26:43;;;;;;;0.70;0.70;;;;;;;;;;10210461;28;20045;-62
2021/10/06 21:31:41;;;;;;;0.73;0.73;;;;;;;;;;10194747;28;20085;-62
2021/10/06 21:36:39;;;;;;;1.50;0.65;;;;;;;;;;10182192;28;20072;-62
2021/10/06 21:41:36;;;;;;;0.57;0.57;;;;;;;;;;10186630;28;20066;-61
2021/10/06 21:46:34;;;;;;;2.23;0.70;;;;;;;;;;10187339;28;20423;-64
2021/10/06 21:51:32;;;;;;;0.67;0.67;;;;;;;;;;10189420;28;20038;-61
2021/10/06 21:56:29;;;;;;;1.47;0.77;;;;;;;;;;10203650;28;20027;-60
2021/10/06 22:01:26;;;;;;;0.93;0.80;;;;;;;;;;10189449;28;20042;-58
2021/10/06 22:06:24;;;;;;;0.80;0.80;;;;;;;;;;10190902;28;20035;-62
2021/10/06 22:11:21;;;;;;;0.77;0.77;;;;;;;;;;10190386;28;20022;-61
2021/10/06 22:16:18;;;;;;;0.60;0.60;;;;;;;;;;10194357;28;20105;-62
2021/10/06 22:21:16;;;;;;;0.57;0.57;;;;;;;;;;10200912;28;20525;-61
2021/10/06 22:26:13;;;;;;;0.60;0.40;;;;;;;;;;10204255;28;20042;-61
2021/10/06 22:31:11;;;;;;;0.57;0.57;;;;;;;;;;10188812;28;20038;-62
2021/10/06 22:36:08;;;;;;;1.17;0.90;;;;;;;;;;10203389;28;20093;-63
2021/10/06 22:41:06;;;;;;;0.47;0.47;;;;;;;;;;10185449;28;20047;-63
2021/10/06 22:46:03;;;;;;;0.63;0.63;;;;;;;;;;10195733;28;20122;-63
2021/10/06 22:51:00;;;;;;;0.77;0.77;;;;;;;;;;10200124;28;20038;-62
2021/10/06 22:55:58;;;;;;;0.73;0.67;;;;;;;;;;10206893;28;20504;-62
2021/10/06 23:00:56;;;;;;;1.75;0.80;;;;;;;;;;10207698;28;20039;-62
2021/10/06 23:05:54;;;;;;;0.85;0.77;;;;;;;;;;10197936;28;20034;-64
2021/10/06 23:10:51;;;;;;;0.47;0.47;;;;;;;;;;10202405;28;20492;-63
2021/10/06 23:15:49;;;;;;;0.68;0.68;;;;;;;;;;10201085;28;20113;-63
2021/10/06 23:20:47;;;;;;;0.77;0.77;;;;;;;;;;10208240;28;20077;-62
2021/10/06 23:25:44;;;;;;;1.80;0.60;;;;;;;;;;10206534;28;20041;-63
2021/10/06 23:30:42;;;;;;;2.37;0.73;;;;;;;;;;10189237;28;20043;-62
2021/10/06 23:35:42;;;;;;;0.75;0.60;;;;;;;;;;10204221;28;20066;-63
2021/10/06 23:40:39;;;;;;;1.80;0.87;;;;;;;;;;10207885;28;20073;-61
2021/10/06 23:45:37;;;;;;;0.43;0.43;;;;;;;;;;10198442;28;20100;-62
2021/10/06 23:50:34;;;;;;;0.50;0.50;;;;;;;;;;10201114;28;20440;-63
2021/10/06 23:55:31;;;;;;;1.23;0.70;;;;;;;;;;10194575;28;20046;-63
